sensor_id;sensor_type;location;lat;lon;timestamp;temperature;humidity
23237;DHT22;11787;52.018;8.570;2023-04-03T00:00:30;3.80;99.90
23237;DHT22;11787;52.018;8.570;2023-04-03T00:02:55;3.80;99.90
23237;DHT22;11787;52.018;8.570;2023-04-03T00:05:21;3.80;99.90
23237;DHT22;11787;52.018;8.570;2023-04-03T00:07:47;3.70;99.90
23237;DHT22;11787;52.018;8.570;2023-04-03T00:10:12;3.60;99.90
23237;DHT22;11787;52.018;8.570;2023-04-03T00:12:39;3.70;99.90
23237;DHT22;11787;52.018;8.570;2023-04-03T00:15:05;3.60;99.90
23237;DHT22;11787;52.018;8.570;2023-04-03T00:17:30;3.60;99.90
23237;DHT22;11787;52.018;8.570;2023-04-03T00:19:56;3.60;99.90
23237;DHT22;11787;52.018;8.570;2023-04-03T00:22:21;3.60;99.90
23237;DHT22;11787;52.018;8.570;2023-04-03T00:24:47;3.60;99.90
23237;DHT22;11787;52.018;8.570;2023-04-03T00:27:12;3.50;99.90
23237;DHT22;11787;52.018;8.570;2023-04-03T00:29:38;3.50;99.90
23237;DHT22;11787;52.018;8.570;2023-04-03T00:32:04;3.50;99.90
23237;DHT22;11787;52.018;8.570;2023-04-03T00:34:29;3.40;99.90
23237;DHT22;11787;52.018;8.570;2023-04-03T00:36:55;3.40;99.90
23237;DHT22;11787;52.018;8.570;2023-04-03T00:39:21;3.30;99.90
23237;DHT22;11787;52.018;8.570;2023-04-03T00:41:46;3.30;99.90
23237;DHT22;11787;52.018;8.570;2023-04-03T00:47:00;3.30;99.90
23237;DHT22;11787;52.018;8.570;2023-04-03T00:49:26;3.30;99.90
23237;DHT22;11787;52.018;8.570;2023-04-03T00:51:52;3.30;99.90
23237;DHT22;11787;52.018;8.570;2023-04-03T00:54:18;3.30;99.90
23237;DHT22;11787;52.018;8.570;2023-04-03T00:56:44;3.20;99.90
23237;DHT22;11787;52.018;8.570;2023-04-03T00:59:14;3.10;99.90
23237;DHT22;11787;52.018;8.570;2023-04-03T01:01:40;3.10;99.90
23237;DHT22;11787;52.018;8.570;2023-04-03T01:04:27;3.10;99.90
23237;DHT22;11787;52.018;8.570;2023-04-03T01:06:55;3.10;99.90
23237;DHT22;11787;52.018;8.570;2023-04-03T01:09:21;3.10;99.90
23237;DHT22;11787;52.018;8.570;2023-04-03T01:11:47;3.00;99.90
23237;DHT22;11787;52.018;8.570;2023-04-03T01:14:13;3.00;99.90
23237;DHT22;11787;52.018;8.570;2023-04-03T01:16:38;3.00;99.90
23237;DHT22;11787;52.018;8.570;2023-04-03T01:19:08;3.00;99.90
23237;DHT22;11787;52.018;8.570;2023-04-03T01:27:10;3.00;99.90
23237;DHT22;11787;52.018;8.570;2023-04-03T01:29:36;2.90;99.90
23237;DHT22;11787;52.018;8.570;2023-04-03T01:32:03;2.90;99.90
23237;DHT22;11787;52.018;8.570;2023-04-03T01:34:29;2.90;99.90
23237;DHT22;11787;52.018;8.570;2023-04-03T01:36:55;2.80;99.90
23237;DHT22;11787;52.018;8.570;2023-04-03T01:39:22;2.70;99.90
23237;DHT22;11787;52.018;8.570;2023-04-03T01:41:48;2.80;99.90
23237;DHT22;11787;52.018;8.570;2023-04-03T01:44:14;2.70;99.90
23237;DHT22;11787;52.018;8.570;2023-04-03T01:46:39;2.70;99.90
23237;DHT22;11787;52.018;8.570;2023-04-03T01:49:06;2.70;99.90
23237;DHT22;11787;52.018;8.570;2023-04-03T01:51:32;2.70;99.90
23237;DHT22;11787;52.018;8.570;2023-04-03T01:53:58;2.70;99.90
23237;DHT22;11787;52.018;8.570;2023-04-03T01:56:24;2.70;99.90
23237;DHT22;11787;52.018;8.570;2023-04-03T01:58:50;2.70;99.90
23237;DHT22;11787;52.018;8.570;2023-04-03T02:01:16;2.60;99.90
23237;DHT22;11787;52.018;8.570;2023-04-03T02:03:41;2.60;99.90
23237;DHT22;11787;52.018;8.570;2023-04-03T02:06:07;2.60;99.90
23237;DHT22;11787;52.018;8.570;2023-04-03T02:08:32;2.50;99.90
23237;DHT22;11787;52.018;8.570;2023-04-03T02:10:58;2.50;99.90
23237;DHT22;11787;52.018;8.570;2023-04-03T02:13:23;2.40;99.90
23237;DHT22;11787;52.018;8.570;2023-04-03T02:15:49;2.40;99.90
23237;DHT22;11787;52.018;8.570;2023-04-03T02:18:15;2.40;99.90
23237;DHT22;11787;52.018;8.570;2023-04-03T02:20:41;2.30;99.90
23237;DHT22;11787;52.018;8.570;2023-04-03T02:23:06;2.30;99.90
23237;DHT22;11787;52.018;8.570;2023-04-03T02:25:33;2.30;99.90
23237;DHT22;11787;52.018;8.570;2023-04-03T02:27:58;2.20;99.90
23237;DHT22;11787;52.018;8.570;2023-04-03T02:30:25;2.20;99.90
23237;DHT22;11787;52.018;8.570;2023-04-03T02:32:50;2.10;99.90
23237;DHT22;11787;52.018;8.570;2023-04-03T02:35:16;2.10;99.90
23237;DHT22;11787;52.018;8.570;2023-04-03T02:37:42;2.10;99.90
23237;DHT22;11787;52.018;8.570;2023-04-03T02:40:08;2.10;99.90
23237;DHT22;11787;52.018;8.570;2023-04-03T02:42:33;2.10;99.90
23237;DHT22;11787;52.018;8.570;2023-04-03T02:44:59;2.10;99.90
23237;DHT22;11787;52.018;8.570;2023-04-03T02:47:29;2.00;99.90
23237;DHT22;11787;52.018;8.570;2023-04-03T02:49:54;2.00;99.90
23237;DHT22;11787;52.018;8.570;2023-04-03T02:52:20;2.00;99.90
23237;DHT22;11787;52.018;8.570;2023-04-03T02:54:46;2.00;99.90
23237;DHT22;11787;52.018;8.570;2023-04-03T02:57:12;1.90;99.90
23237;DHT22;11787;52.018;8.570;2023-04-03T02:59:38;1.80;99.90
23237;DHT22;11787;52.018;8.570;2023-04-03T03:02:09;1.80;99.90
23237;DHT22;11787;52.018;8.570;2023-04-03T03:04:35;1.70;99.90
23237;DHT22;11787;52.018;8.570;2023-04-03T03:07:02;1.70;99.90
23237;DHT22;11787;52.018;8.570;2023-04-03T03:09:28;1.70;99.90
23237;DHT22;11787;52.018;8.570;2023-04-03T03:11:55;1.70;99.90
23237;DHT22;11787;52.018;8.570;2023-04-03T03:14:20;1.70;99.90
23237;DHT22;11787;52.018;8.570;2023-04-03T03:16:46;1.70;99.90
23237;DHT22;11787;52.018;8.570;2023-04-03T03:19:11;1.60;99.90
23237;DHT22;11787;52.018;8.570;2023-04-03T03:21:37;1.60;99.90
23237;DHT22;11787;52.018;8.570;2023-04-03T03:24:03;1.50;99.90
23237;DHT22;11787;52.018;8.570;2023-04-03T03:26:29;1.40;99.90
23237;DHT22;11787;52.018;8.570;2023-04-03T03:28:54;1.40;99.90
23237;DHT22;11787;52.018;8.570;2023-04-03T03:31:20;1.40;99.90
23237;DHT22;11787;52.018;8.570;2023-04-03T03:33:45;1.30;99.90
23237;DHT22;11787;52.018;8.570;2023-04-03T03:36:11;1.30;99.90
23237;DHT22;11787;52.018;8.570;2023-04-03T03:38:37;1.30;99.90
23237;DHT22;11787;52.018;8.570;2023-04-03T03:41:02;1.30;99.90
23237;DHT22;11787;52.018;8.570;2023-04-03T03:43:28;1.30;99.90
23237;DHT22;11787;52.018;8.570;2023-04-03T03:45:54;1.30;99.90
23237;DHT22;11787;52.018;8.570;2023-04-03T03:48:21;1.30;99.90
23237;DHT22;11787;52.018;8.570;2023-04-03T03:50:47;1.30;99.90
23237;DHT22;11787;52.018;8.570;2023-04-03T03:53:13;1.30;99.90
23237;DHT22;11787;52.018;8.570;2023-04-03T03:55:40;1.30;99.90
23237;DHT22;11787;52.018;8.570;2023-04-03T03:58:05;1.20;99.90
23237;DHT22;11787;52.018;8.570;2023-04-03T04:00:31;1.20;99.90
23237;DHT22;11787;52.018;8.570;2023-04-03T04:02:57;1.10;99.90
23237;DHT22;11787;52.018;8.570;2023-04-03T04:05:23;1.10;99.90
23237;DHT22;11787;52.018;8.570;2023-04-03T04:07:48;1.10;99.90
23237;DHT22;11787;52.018;8.570;2023-04-03T04:10:14;1.10;99.90
23237;DHT22;11787;52.018;8.570;2023-04-03T04:12:40;1.20;99.90
23237;DHT22;11787;52.018;8.570;2023-04-03T04:15:06;1.20;99.90
23237;DHT22;11787;52.018;8.570;2023-04-03T04:17:31;1.10;99.90
23237;DHT22;11787;52.018;8.570;2023-04-03T04:19:57;1.00;99.90
23237;DHT22;11787;52.018;8.570;2023-04-03T04:22:23;0.90;99.90
23237;DHT22;11787;52.018;8.570;2023-04-03T04:24:48;0.90;99.90
23237;DHT22;11787;52.018;8.570;2023-04-03T04:27:14;0.90;99.90
23237;DHT22;11787;52.018;8.570;2023-04-03T04:29:41;0.90;99.90
23237;DHT22;11787;52.018;8.570;2023-04-03T04:32:06;0.80;99.90
23237;DHT22;11787;52.018;8.570;2023-04-03T04:34:32;0.80;99.90
23237;DHT22;11787;52.018;8.570;2023-04-03T04:36:57;0.80;99.90
23237;DHT22;11787;52.018;8.570;2023-04-03T04:39:23;0.90;99.90
23237;DHT22;11787;52.018;8.570;2023-04-03T04:41:49;0.90;99.90
23237;DHT22;11787;52.018;8.570;2023-04-03T04:44:14;0.90;99.90
23237;DHT22;11787;52.018;8.570;2023-04-03T04:46:40;0.90;99.90
23237;DHT22;11787;52.018;8.570;2023-04-03T04:49:06;0.90;99.90
23237;DHT22;11787;52.018;8.570;2023-04-03T04:51:31;0.90;99.90
23237;DHT22;11787;52.018;8.570;2023-04-03T04:53:57;0.90;99.90
23237;DHT22;11787;52.018;8.570;2023-04-03T04:56:22;0.90;99.90
23237;DHT22;11787;52.018;8.570;2023-04-03T04:58:48;0.90;99.90
23237;DHT22;11787;52.018;8.570;2023-04-03T05:01:14;0.90;99.90
23237;DHT22;11787;52.018;8.570;2023-04-03T05:03:39;0.90;99.90
23237;DHT22;11787;52.018;8.570;2023-04-03T05:06:05;0.70;99.90
23237;DHT22;11787;52.018;8.570;2023-04-03T05:08:31;0.70;99.90
23237;DHT22;11787;52.018;8.570;2023-04-03T05:10:57;0.60;99.90
23237;DHT22;11787;52.018;8.570;2023-04-03T05:13:23;0.60;99.90
23237;DHT22;11787;52.018;8.570;2023-04-03T05:15:49;0.70;99.90
23237;DHT22;11787;52.018;8.570;2023-04-03T05:18:14;0.60;99.90
23237;DHT22;11787;52.018;8.570;2023-04-03T05:20:40;0.70;99.90
23237;DHT22;11787;52.018;8.570;2023-04-03T05:23:06;0.70;99.90
23237;DHT22;11787;52.018;8.570;2023-04-03T05:25:31;0.70;99.90
23237;DHT22;11787;52.018;8.570;2023-04-03T05:27:57;0.70;99.90
23237;DHT22;11787;52.018;8.570;2023-04-03T05:30:23;0.70;99.90
23237;DHT22;11787;52.018;8.570;2023-04-03T05:32:48;0.70;99.90
23237;DHT22;11787;52.018;8.570;2023-04-03T05:35:14;0.80;99.90
23237;DHT22;11787;52.018;8.570;2023-04-03T05:37:40;0.70;99.90
23237;DHT22;11787;52.018;8.570;2023-04-03T05:40:06;0.80;99.90
23237;DHT22;11787;52.018;8.570;2023-04-03T05:42:32;0.80;99.90
23237;DHT22;11787;52.018;8.570;2023-04-03T05:44:58;0.80;99.90
23237;DHT22;11787;52.018;8.570;2023-04-03T05:47:24;0.80;99.90
23237;DHT22;11787;52.018;8.570;2023-04-03T05:49:49;0.90;99.90
23237;DHT22;11787;52.018;8.570;2023-04-03T05:52:25;0.90;99.90
23237;DHT22;11787;52.018;8.570;2023-04-03T05:54:52;0.90;99.90
23237;DHT22;11787;52.018;8.570;2023-04-03T05:57:17;1.00;99.90
23237;DHT22;11787;52.018;8.570;2023-04-03T05:59:44;0.90;99.90
23237;DHT22;11787;52.018;8.570;2023-04-03T06:02:16;1.00;99.90
23237;DHT22;11787;52.018;8.570;2023-04-03T06:04:42;1.00;99.90
23237;DHT22;11787;52.018;8.570;2023-04-03T06:07:12;1.10;99.90
23237;DHT22;11787;52.018;8.570;2023-04-03T06:09:38;1.10;99.90
23237;DHT22;11787;52.018;8.570;2023-04-03T06:12:04;1.10;99.90
23237;DHT22;11787;52.018;8.570;2023-04-03T06:14:30;1.10;99.90
23237;DHT22;11787;52.018;8.570;2023-04-03T06:16:56;1.20;99.90
23237;DHT22;11787;52.018;8.570;2023-04-03T06:19:21;1.20;99.90
23237;DHT22;11787;52.018;8.570;2023-04-03T06:21:47;1.20;99.90
23237;DHT22;11787;52.018;8.570;2023-04-03T06:24:15;1.30;99.90
23237;DHT22;11787;52.018;8.570;2023-04-03T06:26:42;1.30;99.90
23237;DHT22;11787;52.018;8.570;2023-04-03T06:29:07;1.40;99.90
23237;DHT22;11787;52.018;8.570;2023-04-03T06:31:33;1.50;99.90
23237;DHT22;11787;52.018;8.570;2023-04-03T06:33:59;1.50;99.90
23237;DHT22;11787;52.018;8.570;2023-04-03T06:36:25;1.50;99.90
23237;DHT22;11787;52.018;8.570;2023-04-03T06:38:51;1.50;99.90
23237;DHT22;11787;52.018;8.570;2023-04-03T06:41:16;1.60;99.90
23237;DHT22;11787;52.018;8.570;2023-04-03T06:43:43;1.70;99.90
23237;DHT22;11787;52.018;8.570;2023-04-03T06:46:20;1.70;99.90
23237;DHT22;11787;52.018;8.570;2023-04-03T06:48:46;1.80;99.90
23237;DHT22;11787;52.018;8.570;2023-04-03T06:51:18;1.90;99.90
23237;DHT22;11787;52.018;8.570;2023-04-03T06:53:44;1.90;99.90
23237;DHT22;11787;52.018;8.570;2023-04-03T06:56:11;2.00;99.90
23237;DHT22;11787;52.018;8.570;2023-04-03T06:58:36;2.10;99.90
23237;DHT22;11787;52.018;8.570;2023-04-03T07:01:02;2.10;99.90
23237;DHT22;11787;52.018;8.570;2023-04-03T07:03:28;2.20;99.90
23237;DHT22;11787;52.018;8.570;2023-04-03T07:05:54;2.30;99.90
23237;DHT22;11787;52.018;8.570;2023-04-03T07:08:19;2.40;99.90
23237;DHT22;11787;52.018;8.570;2023-04-03T07:10:45;2.50;99.90
23237;DHT22;11787;52.018;8.570;2023-04-03T07:13:11;2.40;99.90
23237;DHT22;11787;52.018;8.570;2023-04-03T07:15:37;2.50;99.90
23237;DHT22;11787;52.018;8.570;2023-04-03T07:18:02;2.50;99.90
23237;DHT22;11787;52.018;8.570;2023-04-03T07:20:29;2.50;99.90
23237;DHT22;11787;52.018;8.570;2023-04-03T07:22:55;2.60;99.90
23237;DHT22;11787;52.018;8.570;2023-04-03T07:25:20;2.70;99.90
23237;DHT22;11787;52.018;8.570;2023-04-03T07:27:47;2.80;99.90
23237;DHT22;11787;52.018;8.570;2023-04-03T07:30:13;2.80;99.90
23237;DHT22;11787;52.018;8.570;2023-04-03T07:32:39;2.90;99.90
23237;DHT22;11787;52.018;8.570;2023-04-03T07:35:05;3.00;99.90
23237;DHT22;11787;52.018;8.570;2023-04-03T07:37:31;3.00;99.90
23237;DHT22;11787;52.018;8.570;2023-04-03T07:39:57;3.10;99.90
23237;DHT22;11787;52.018;8.570;2023-04-03T07:42:24;3.20;99.90
23237;DHT22;11787;52.018;8.570;2023-04-03T07:44:53;3.20;99.90
23237;DHT22;11787;52.018;8.570;2023-04-03T07:47:19;3.30;99.90
23237;DHT22;11787;52.018;8.570;2023-04-03T07:49:46;3.30;99.90
23237;DHT22;11787;52.018;8.570;2023-04-03T07:52:12;3.30;99.90
23237;DHT22;11787;52.018;8.570;2023-04-03T07:54:40;3.30;99.90
23237;DHT22;11787;52.018;8.570;2023-04-03T07:57:05;3.40;99.90
23237;DHT22;11787;52.018;8.570;2023-04-03T07:59:32;3.40;99.90
23237;DHT22;11787;52.018;8.570;2023-04-03T08:01:57;3.40;99.90
23237;DHT22;11787;52.018;8.570;2023-04-03T08:04:23;3.40;99.90
23237;DHT22;11787;52.018;8.570;2023-04-03T08:06:49;3.50;99.90
23237;DHT22;11787;52.018;8.570;2023-04-03T08:09:15;3.50;99.90
23237;DHT22;11787;52.018;8.570;2023-04-03T08:11:41;3.50;99.90
23237;DHT22;11787;52.018;8.570;2023-04-03T08:14:07;3.60;99.90
23237;DHT22;11787;52.018;8.570;2023-04-03T08:16:33;3.70;99.90
23237;DHT22;11787;52.018;8.570;2023-04-03T08:18:58;3.70;99.90
23237;DHT22;11787;52.018;8.570;2023-04-03T08:21:24;3.70;99.90
23237;DHT22;11787;52.018;8.570;2023-04-03T08:23:50;3.70;99.90
23237;DHT22;11787;52.018;8.570;2023-04-03T08:26:18;3.70;99.90
23237;DHT22;11787;52.018;8.570;2023-04-03T08:28:45;3.80;99.90
23237;DHT22;11787;52.018;8.570;2023-04-03T08:31:15;3.80;99.90
23237;DHT22;11787;52.018;8.570;2023-04-03T08:33:41;3.80;99.90
23237;DHT22;11787;52.018;8.570;2023-04-03T08:36:14;4.00;99.90
23237;DHT22;11787;52.018;8.570;2023-04-03T08:38:41;4.00;99.90
23237;DHT22;11787;52.018;8.570;2023-04-03T08:46:24;4.10;99.90
23237;DHT22;11787;52.018;8.570;2023-04-03T08:48:53;4.20;99.90
23237;DHT22;11787;52.018;8.570;2023-04-03T08:51:20;4.30;99.90
23237;DHT22;11787;52.018;8.570;2023-04-03T08:54:03;4.30;99.90
23237;DHT22;11787;52.018;8.570;2023-04-03T08:56:30;4.40;99.90
23237;DHT22;11787;52.018;8.570;2023-04-03T08:59:00;4.40;99.90
23237;DHT22;11787;52.018;8.570;2023-04-03T09:01:35;4.50;99.90
23237;DHT22;11787;52.018;8.570;2023-04-03T09:04:03;4.60;99.90
23237;DHT22;11787;52.018;8.570;2023-04-03T09:06:32;4.50;99.90
23237;DHT22;11787;52.018;8.570;2023-04-03T09:09:35;4.60;99.90
23237;DHT22;11787;52.018;8.570;2023-04-03T09:14:52;4.90;99.90
23237;DHT22;11787;52.018;8.570;2023-04-03T09:17:31;5.00;99.90
23237;DHT22;11787;52.018;8.570;2023-04-03T09:22:45;5.20;99.90
23237;DHT22;11787;52.018;8.570;2023-04-03T09:27:47;5.30;99.90
23237;DHT22;11787;52.018;8.570;2023-04-03T09:30:15;5.50;99.90
23237;DHT22;11787;52.018;8.570;2023-04-03T09:32:41;5.60;99.90
23237;DHT22;11787;52.018;8.570;2023-04-03T09:38:34;6.00;99.90
23237;DHT22;11787;52.018;8.570;2023-04-03T09:40:39;6.10;99.90
23237;DHT22;11787;52.018;8.570;2023-04-03T09:45:44;6.40;99.90
23237;DHT22;11787;52.018;8.570;2023-04-03T09:53:38;7.80;99.90
23237;DHT22;11787;52.018;8.570;2023-04-03T09:58:44;7.60;99.90
23237;DHT22;11787;52.018;8.570;2023-04-03T10:01:43;7.70;99.90
23237;DHT22;11787;52.018;8.570;2023-04-03T10:04:22;8.00;99.90
23237;DHT22;11787;52.018;8.570;2023-04-03T10:06:54;8.30;99.90
23237;DHT22;11787;52.018;8.570;2023-04-03T10:09:31;8.50;99.90
23237;DHT22;11787;52.018;8.570;2023-04-03T10:14:30;9.50;99.90
23237;DHT22;11787;52.018;8.570;2023-04-03T10:19:39;9.30;99.90
23237;DHT22;11787;52.018;8.570;2023-04-03T10:22:12;9.10;99.90
23237;DHT22;11787;52.018;8.570;2023-04-03T10:27:26;9.40;99.90
23237;DHT22;11787;52.018;8.570;2023-04-03T10:29:55;9.60;99.90
23237;DHT22;11787;52.018;8.570;2023-04-03T10:40:23;9.20;99.90
23237;DHT22;11787;52.018;8.570;2023-04-03T10:48:38;11.20;99.90
23237;DHT22;11787;52.018;8.570;2023-04-03T10:51:12;10.70;99.90
23237;DHT22;11787;52.018;8.570;2023-04-03T10:53:55;10.70;99.90
23237;DHT22;11787;52.018;8.570;2023-04-03T10:58:55;10.30;99.90
23237;DHT22;11787;52.018;8.570;2023-04-03T11:01:41;10.20;99.90
23237;DHT22;11787;52.018;8.570;2023-04-03T11:04:07;10.70;99.90
23237;DHT22;11787;52.018;8.570;2023-04-03T11:06:36;10.80;99.90
23237;DHT22;11787;52.018;8.570;2023-04-03T11:09:05;11.00;99.90
23237;DHT22;11787;52.018;8.570;2023-04-03T11:11:37;11.30;99.90
23237;DHT22;11787;52.018;8.570;2023-04-03T11:16:30;11.50;99.90
23237;DHT22;11787;52.018;8.570;2023-04-03T11:18:59;10.50;99.90
23237;DHT22;11787;52.018;8.570;2023-04-03T11:23:55;9.30;99.90
23237;DHT22;11787;52.018;8.570;2023-04-03T11:26:24;8.80;99.90
23237;DHT22;11787;52.018;8.570;2023-04-03T11:28:58;8.50;99.90
23237;DHT22;11787;52.018;8.570;2023-04-03T11:34:24;8.20;99.90
23237;DHT22;11787;52.018;8.570;2023-04-03T11:36:54;8.30;99.90
23237;DHT22;11787;52.018;8.570;2023-04-03T11:39:28;8.00;99.90
23237;DHT22;11787;52.018;8.570;2023-04-03T11:41:54;8.00;99.90
23237;DHT22;11787;52.018;8.570;2023-04-03T11:46:56;8.10;99.90
23237;DHT22;11787;52.018;8.570;2023-04-03T11:52:09;7.90;99.90
23237;DHT22;11787;52.018;8.570;2023-04-03T11:54:42;7.90;99.90
23237;DHT22;11787;52.018;8.570;2023-04-03T11:59:53;8.20;99.90
23237;DHT22;11787;52.018;8.570;2023-04-03T12:02:34;8.90;99.90
23237;DHT22;11787;52.018;8.570;2023-04-03T12:07:56;9.30;99.90
23237;DHT22;11787;52.018;8.570;2023-04-03T12:10:30;9.50;99.90
23237;DHT22;11787;52.018;8.570;2023-04-03T12:12:57;9.70;99.90
23237;DHT22;11787;52.018;8.570;2023-04-03T12:15:26;9.50;99.90
23237;DHT22;11787;52.018;8.570;2023-04-03T12:17:52;9.20;99.90
23237;DHT22;11787;52.018;8.570;2023-04-03T12:23:25;9.10;99.90
23237;DHT22;11787;52.018;8.570;2023-04-03T12:25:51;9.10;99.90
23237;DHT22;11787;52.018;8.570;2023-04-03T12:28:17;9.30;99.90
23237;DHT22;11787;52.018;8.570;2023-04-03T12:30:43;9.50;99.90
23237;DHT22;11787;52.018;8.570;2023-04-03T12:38:17;10.00;99.90
23237;DHT22;11787;52.018;8.570;2023-04-03T12:40:52;10.00;99.90
23237;DHT22;11787;52.018;8.570;2023-04-03T12:48:33;9.60;99.90
23237;DHT22;11787;52.018;8.570;2023-04-03T12:51:02;9.90;99.90
23237;DHT22;11787;52.018;8.570;2023-04-03T12:53:29;10.10;99.90
23237;DHT22;11787;52.018;8.570;2023-04-03T12:56:41;10.50;99.90
23237;DHT22;11787;52.018;8.570;2023-04-03T12:58:48;10.80;99.90
23237;DHT22;11787;52.018;8.570;2023-04-03T13:01:17;10.60;99.90
23237;DHT22;11787;52.018;8.570;2023-04-03T13:03:47;10.20;99.90
23237;DHT22;11787;52.018;8.570;2023-04-03T13:06:17;10.40;99.90
23237;DHT22;11787;52.018;8.570;2023-04-03T13:08:57;10.30;99.90
23237;DHT22;11787;52.018;8.570;2023-04-03T13:11:24;10.20;99.90
23237;DHT22;11787;52.018;8.570;2023-04-03T13:13:55;9.90;99.90
23237;DHT22;11787;52.018;8.570;2023-04-03T13:16:20;9.50;99.90
23237;DHT22;11787;52.018;8.570;2023-04-03T13:18:50;9.10;99.90
23237;DHT22;11787;52.018;8.570;2023-04-03T13:21:17;8.90;99.90
23237;DHT22;11787;52.018;8.570;2023-04-03T13:23:44;8.60;99.90
23237;DHT22;11787;52.018;8.570;2023-04-03T13:26:10;8.20;99.90
23237;DHT22;11787;52.018;8.570;2023-04-03T13:46:32;9.00;99.90
23237;DHT22;11787;52.018;8.570;2023-04-03T13:48:58;9.10;99.90
23237;DHT22;11787;52.018;8.570;2023-04-03T13:51:42;9.30;99.90
23237;DHT22;11787;52.018;8.570;2023-04-03T13:54:43;9.40;99.90
23237;DHT22;11787;52.018;8.570;2023-04-03T13:57:15;9.30;99.90
23237;DHT22;11787;52.018;8.570;2023-04-03T13:59:41;9.40;99.90
23237;DHT22;11787;52.018;8.570;2023-04-03T14:02:31;9.50;99.90
23237;DHT22;11787;52.018;8.570;2023-04-03T14:04:59;9.80;99.90
23237;DHT22;11787;52.018;8.570;2023-04-03T14:07:28;9.80;99.90
23237;DHT22;11787;52.018;8.570;2023-04-03T14:09:54;9.90;99.90
23237;DHT22;11787;52.018;8.570;2023-04-03T14:12:33;10.00;99.90
23237;DHT22;11787;52.018;8.570;2023-04-03T14:15:06;10.20;99.90
23237;DHT22;11787;52.018;8.570;2023-04-03T14:17:33;10.30;99.90
23237;DHT22;11787;52.018;8.570;2023-04-03T14:19:59;10.40;99.90
23237;DHT22;11787;52.018;8.570;2023-04-03T14:22:28;10.20;99.90
23237;DHT22;11787;52.018;8.570;2023-04-03T14:24:55;9.70;99.90
23237;DHT22;11787;52.018;8.570;2023-04-03T14:27:30;9.40;99.90
23237;DHT22;11787;52.018;8.570;2023-04-03T14:29:58;9.10;99.90
23237;DHT22;11787;52.018;8.570;2023-04-03T14:32:26;9.20;99.90
23237;DHT22;11787;52.018;8.570;2023-04-03T14:34:52;9.30;99.90
23237;DHT22;11787;52.018;8.570;2023-04-03T14:37:22;9.20;99.90
23237;DHT22;11787;52.018;8.570;2023-04-03T14:39:49;9.20;99.90
23237;DHT22;11787;52.018;8.570;2023-04-03T14:42:22;9.10;99.90
23237;DHT22;11787;52.018;8.570;2023-04-03T14:44:48;9.30;99.90
23237;DHT22;11787;52.018;8.570;2023-04-03T14:47:17;9.20;99.90
23237;DHT22;11787;52.018;8.570;2023-04-03T14:49:43;9.30;99.90
23237;DHT22;11787;52.018;8.570;2023-04-03T14:52:26;9.20;99.90
23237;DHT22;11787;52.018;8.570;2023-04-03T14:54:53;9.20;99.90
23237;DHT22;11787;52.018;8.570;2023-04-03T14:57:20;9.10;99.90
23237;DHT22;11787;52.018;8.570;2023-04-03T14:59:47;9.00;99.90
23237;DHT22;11787;52.018;8.570;2023-04-03T15:02:27;9.10;99.90
23237;DHT22;11787;52.018;8.570;2023-04-03T15:04:54;9.00;99.90
23237;DHT22;11787;52.018;8.570;2023-04-03T15:07:21;9.10;99.90
23237;DHT22;11787;52.018;8.570;2023-04-03T15:09:46;9.10;99.90
23237;DHT22;11787;52.018;8.570;2023-04-03T15:12:12;9.20;99.90
23237;DHT22;11787;52.018;8.570;2023-04-03T15:14:38;9.20;99.90
23237;DHT22;11787;52.018;8.570;2023-04-03T15:17:13;9.40;99.90
23237;DHT22;11787;52.018;8.570;2023-04-03T15:19:40;9.30;99.90
23237;DHT22;11787;52.018;8.570;2023-04-03T15:22:06;9.10;99.90
23237;DHT22;11787;52.018;8.570;2023-04-03T15:24:32;9.00;99.90
23237;DHT22;11787;52.018;8.570;2023-04-03T15:26:57;8.80;99.90
23237;DHT22;11787;52.018;8.570;2023-04-03T15:29:23;8.80;99.90
23237;DHT22;11787;52.018;8.570;2023-04-03T15:31:49;8.90;99.90
23237;DHT22;11787;52.018;8.570;2023-04-03T15:34:17;8.80;99.90
23237;DHT22;11787;52.018;8.570;2023-04-03T15:36:43;8.80;99.90
23237;DHT22;11787;52.018;8.570;2023-04-03T15:39:09;8.70;99.90
23237;DHT22;11787;52.018;8.570;2023-04-03T15:41:34;8.60;99.90
23237;DHT22;11787;52.018;8.570;2023-04-03T15:44:00;8.40;99.90
23237;DHT22;11787;52.018;8.570;2023-04-03T15:46:25;8.40;99.90
23237;DHT22;11787;52.018;8.570;2023-04-03T15:48:51;8.50;99.90
23237;DHT22;11787;52.018;8.570;2023-04-03T15:51:17;8.80;99.90
23237;DHT22;11787;52.018;8.570;2023-04-03T15:53:42;8.80;99.90
23237;DHT22;11787;52.018;8.570;2023-04-03T15:56:08;8.70;99.90
23237;DHT22;11787;52.018;8.570;2023-04-03T15:58:35;8.60;99.90
23237;DHT22;11787;52.018;8.570;2023-04-03T16:01:01;8.50;99.90
23237;DHT22;11787;52.018;8.570;2023-04-03T16:03:27;8.30;99.90
23237;DHT22;11787;52.018;8.570;2023-04-03T16:05:53;8.20;99.90
23237;DHT22;11787;52.018;8.570;2023-04-03T16:08:19;8.00;99.90
23237;DHT22;11787;52.018;8.570;2023-04-03T16:10:45;7.80;99.90
23237;DHT22;11787;52.018;8.570;2023-04-03T16:13:12;7.80;99.90
23237;DHT22;11787;52.018;8.570;2023-04-03T16:15:39;7.70;99.90
23237;DHT22;11787;52.018;8.570;2023-04-03T16:18:05;7.70;99.90
23237;DHT22;11787;52.018;8.570;2023-04-03T16:20:31;7.80;99.90
23237;DHT22;11787;52.018;8.570;2023-04-03T16:22:58;7.80;99.90
23237;DHT22;11787;52.018;8.570;2023-04-03T16:25:25;7.90;99.90
23237;DHT22;11787;52.018;8.570;2023-04-03T16:27:51;8.00;99.90
23237;DHT22;11787;52.018;8.570;2023-04-03T16:30:16;8.00;99.90
23237;DHT22;11787;52.018;8.570;2023-04-03T16:32:42;8.00;99.90
23237;DHT22;11787;52.018;8.570;2023-04-03T16:35:09;8.00;99.90
23237;DHT22;11787;52.018;8.570;2023-04-03T16:37:36;7.90;99.90
23237;DHT22;11787;52.018;8.570;2023-04-03T16:40:02;7.90;99.90
23237;DHT22;11787;52.018;8.570;2023-04-03T16:42:28;7.90;99.90
23237;DHT22;11787;52.018;8.570;2023-04-03T16:44:53;7.80;99.90
23237;DHT22;11787;52.018;8.570;2023-04-03T16:47:19;7.70;99.90
23237;DHT22;11787;52.018;8.570;2023-04-03T16:49:46;7.70;99.90
23237;DHT22;11787;52.018;8.570;2023-04-03T16:52:12;7.70;99.90
23237;DHT22;11787;52.018;8.570;2023-04-03T16:54:38;7.60;99.90
23237;DHT22;11787;52.018;8.570;2023-04-03T16:57:03;7.50;99.90
23237;DHT22;11787;52.018;8.570;2023-04-03T16:59:29;7.40;99.90
23237;DHT22;11787;52.018;8.570;2023-04-03T17:01:55;7.40;99.90
23237;DHT22;11787;52.018;8.570;2023-04-03T17:04:20;7.40;99.90
23237;DHT22;11787;52.018;8.570;2023-04-03T17:06:46;7.40;99.90
23237;DHT22;11787;52.018;8.570;2023-04-03T17:09:12;7.30;99.90
23237;DHT22;11787;52.018;8.570;2023-04-03T17:11:37;7.40;99.90
23237;DHT22;11787;52.018;8.570;2023-04-03T17:14:04;7.30;99.90
23237;DHT22;11787;52.018;8.570;2023-04-03T17:16:31;7.30;99.90
23237;DHT22;11787;52.018;8.570;2023-04-03T17:18:57;7.30;99.90
23237;DHT22;11787;52.018;8.570;2023-04-03T17:21:23;7.30;99.90
23237;DHT22;11787;52.018;8.570;2023-04-03T17:23:54;7.20;99.90
23237;DHT22;11787;52.018;8.570;2023-04-03T17:26:23;7.00;99.90
23237;DHT22;11787;52.018;8.570;2023-04-03T17:28:48;7.00;99.90
23237;DHT22;11787;52.018;8.570;2023-04-03T17:31:14;7.00;99.90
23237;DHT22;11787;52.018;8.570;2023-04-03T17:33:39;7.00;99.90
23237;DHT22;11787;52.018;8.570;2023-04-03T17:36:05;6.90;99.90